sensor_id;sensor_type;location;lat;lon;timestamp;P1;durP1;ratioP1;P2;durP2;ratioP2
77868;SDS011;67231;59.144;37.934;2023-09-12T00:01:10;13.05;;;7.65;;
77868;SDS011;67231;59.144;37.934;2023-09-12T00:03:37;15.95;;;7.95;;
77868;SDS011;67231;59.144;37.934;2023-09-12T00:06:03;16.33;;;7.53;;
77868;SDS011;67231;59.144;37.934;2023-09-12T00:08:30;15.68;;;8.05;;
77868;SDS011;67231;59.144;37.934;2023-09-12T00:13:37;15.57;;;8.38;;
77868;SDS011;67231;59.144;37.934;2023-09-12T00:16:07;15.43;;;7.55;;
77868;SDS011;67231;59.144;37.934;2023-09-12T00:18:37;17.08;;;9.45;;
77868;SDS011;67231;59.144;37.934;2023-09-12T00:21:04;16.85;;;8.10;;
77868;SDS011;67231;59.144;37.934;2023-09-12T00:23:31;16.35;;;8.48;;
77868;SDS011;67231;59.144;37.934;2023-09-12T00:25:57;16.13;;;7.97;;
77868;SDS011;67231;59.144;37.934;2023-09-12T00:28:24;14.35;;;8.05;;
77868;SDS011;67231;59.144;37.934;2023-09-12T00:30:51;16.50;;;8.75;;
77868;SDS011;67231;59.144;37.934;2023-09-12T00:33:18;18.48;;;8.40;;
77868;SDS011;67231;59.144;37.934;2023-09-12T00:35:44;14.60;;;7.90;;
77868;SDS011;67231;59.144;37.934;2023-09-12T00:38:11;15.80;;;8.10;;
77868;SDS011;67231;59.144;37.934;2023-09-12T00:40:37;16.92;;;8.38;;
77868;SDS011;67231;59.144;37.934;2023-09-12T00:43:04;20.00;;;9.40;;
77868;SDS011;67231;59.144;37.934;2023-09-12T00:45:30;14.35;;;8.00;;
77868;SDS011;67231;59.144;37.934;2023-09-12T00:47:57;14.50;;;7.82;;
77868;SDS011;67231;59.144;37.934;2023-09-12T00:50:27;24.98;;;15.77;;
77868;SDS011;67231;59.144;37.934;2023-09-12T00:52:54;16.80;;;8.85;;
77868;SDS011;67231;59.144;37.934;2023-09-12T00:55:22;19.30;;;9.30;;
77868;SDS011;67231;59.144;37.934;2023-09-12T00:57:48;17.27;;;8.73;;
77868;SDS011;67231;59.144;37.934;2023-09-12T01:00:17;18.17;;;9.23;;
77868;SDS011;67231;59.144;37.934;2023-09-12T01:02:44;18.70;;;9.38;;
77868;SDS011;67231;59.144;37.934;2023-09-12T01:05:13;26.23;;;9.70;;
77868;SDS011;67231;59.144;37.934;2023-09-12T01:07:41;19.73;;;9.88;;
77868;SDS011;67231;59.144;37.934;2023-09-12T01:10:09;22.45;;;10.07;;
77868;SDS011;67231;59.144;37.934;2023-09-12T01:12:36;17.17;;;8.57;;
77868;SDS011;67231;59.144;37.934;2023-09-12T01:15:02;20.58;;;9.20;;
77868;SDS011;67231;59.144;37.934;2023-09-12T01:17:34;20.38;;;9.80;;
77868;SDS011;67231;59.144;37.934;2023-09-12T01:20:00;15.15;;;8.15;;
77868;SDS011;67231;59.144;37.934;2023-09-12T01:27:50;19.48;;;8.30;;
77868;SDS011;67231;59.144;37.934;2023-09-12T01:30:19;24.13;;;10.52;;
77868;SDS011;67231;59.144;37.934;2023-09-12T01:32:47;14.77;;;7.97;;
77868;SDS011;67231;59.144;37.934;2023-09-12T01:35:14;17.63;;;8.45;;
77868;SDS011;67231;59.144;37.934;2023-09-12T01:37:41;16.90;;;8.82;;
77868;SDS011;67231;59.144;37.934;2023-09-12T01:40:07;16.55;;;9.30;;
77868;SDS011;67231;59.144;37.934;2023-09-12T01:42:36;16.85;;;8.95;;
77868;SDS011;67231;59.144;37.934;2023-09-12T01:45:04;19.10;;;9.70;;
77868;SDS011;67231;59.144;37.934;2023-09-12T01:47:32;17.27;;;9.52;;
77868;SDS011;67231;59.144;37.934;2023-09-12T01:50:00;18.65;;;9.55;;
77868;SDS011;67231;59.144;37.934;2023-09-12T01:52:29;17.67;;;9.18;;
77868;SDS011;67231;59.144;37.934;2023-09-12T01:54:58;18.05;;;9.15;;
77868;SDS011;67231;59.144;37.934;2023-09-12T01:57:25;16.73;;;8.90;;
77868;SDS011;67231;59.144;37.934;2023-09-12T01:59:52;18.88;;;9.38;;
77868;SDS011;67231;59.144;37.934;2023-09-12T02:02:18;18.08;;;9.15;;
77868;SDS011;67231;59.144;37.934;2023-09-12T02:04:46;27.02;;;10.52;;
77868;SDS011;67231;59.144;37.934;2023-09-12T02:07:43;20.80;;;10.00;;
77868;SDS011;67231;59.144;37.934;2023-09-12T02:10:09;22.13;;;10.02;;
77868;SDS011;67231;59.144;37.934;2023-09-12T02:12:35;22.75;;;10.82;;
77868;SDS011;67231;59.144;37.934;2023-09-12T02:15:02;24.88;;;11.93;;
77868;SDS011;67231;59.144;37.934;2023-09-12T02:17:32;19.17;;;10.02;;
77868;SDS011;67231;59.144;37.934;2023-09-12T02:20:18;21.67;;;10.27;;
77868;SDS011;67231;59.144;37.934;2023-09-12T02:22:45;22.48;;;10.65;;
77868;SDS011;67231;59.144;37.934;2023-09-12T02:25:11;19.83;;;10.60;;
77868;SDS011;67231;59.144;37.934;2023-09-12T02:27:38;21.05;;;9.70;;
77868;SDS011;67231;59.144;37.934;2023-09-12T02:30:04;19.85;;;10.52;;
77868;SDS011;67231;59.144;37.934;2023-09-12T02:32:35;21.23;;;10.43;;
77868;SDS011;67231;59.144;37.934;2023-09-12T02:35:02;19.30;;;9.98;;
77868;SDS011;67231;59.144;37.934;2023-09-12T02:37:31;21.20;;;11.00;;
77868;SDS011;67231;59.144;37.934;2023-09-12T02:39:57;18.42;;;10.13;;
77868;SDS011;67231;59.144;37.934;2023-09-12T02:42:23;23.70;;;10.30;;
77868;SDS011;67231;59.144;37.934;2023-09-12T02:44:51;20.92;;;9.98;;
77868;SDS011;67231;59.144;37.934;2023-09-12T02:47:18;20.75;;;9.80;;
77868;SDS011;67231;59.144;37.934;2023-09-12T02:49:45;18.45;;;10.65;;
77868;SDS011;67231;59.144;37.934;2023-09-12T02:52:11;23.15;;;10.52;;
77868;SDS011;67231;59.144;37.934;2023-09-12T02:54:37;24.67;;;11.27;;
77868;SDS011;67231;59.144;37.934;2023-09-12T02:57:05;22.20;;;10.90;;
77868;SDS011;67231;59.144;37.934;2023-09-12T02:59:31;20.02;;;10.30;;
77868;SDS011;67231;59.144;37.934;2023-09-12T03:01:57;25.95;;;10.95;;
77868;SDS011;67231;59.144;37.934;2023-09-12T03:04:27;23.90;;;10.65;;
77868;SDS011;67231;59.144;37.934;2023-09-12T03:06:55;22.45;;;10.43;;
77868;SDS011;67231;59.144;37.934;2023-09-12T03:09:22;19.27;;;10.18;;
77868;SDS011;67231;59.144;37.934;2023-09-12T03:11:49;18.45;;;9.68;;
77868;SDS011;67231;59.144;37.934;2023-09-12T03:14:16;21.95;;;10.38;;
77868;SDS011;67231;59.144;37.934;2023-09-12T03:16:43;18.73;;;9.50;;
77868;SDS011;67231;59.144;37.934;2023-09-12T03:19:09;25.55;;;10.73;;
77868;SDS011;67231;59.144;37.934;2023-09-12T03:21:36;18.00;;;9.93;;
77868;SDS011;67231;59.144;37.934;2023-09-12T03:24:02;20.27;;;9.40;;
77868;SDS011;67231;59.144;37.934;2023-09-12T03:26:29;19.70;;;9.85;;
77868;SDS011;67231;59.144;37.934;2023-09-12T03:28:56;20.15;;;10.88;;
77868;SDS011;67231;59.144;37.934;2023-09-12T03:31:22;21.10;;;10.15;;
77868;SDS011;67231;59.144;37.934;2023-09-12T03:33:49;19.10;;;8.90;;
77868;SDS011;67231;59.144;37.934;2023-09-12T03:36:17;20.42;;;9.02;;
77868;SDS011;67231;59.144;37.934;2023-09-12T03:38:44;20.73;;;9.90;;
77868;SDS011;67231;59.144;37.934;2023-09-12T03:41:11;22.98;;;10.38;;
77868;SDS011;67231;59.144;37.934;2023-09-12T03:43:38;19.83;;;10.10;;
77868;SDS011;67231;59.144;37.934;2023-09-12T03:46:05;20.48;;;9.48;;
77868;SDS011;67231;59.144;37.934;2023-09-12T03:48:32;22.33;;;10.23;;
77868;SDS011;67231;59.144;37.934;2023-09-12T03:51:02;20.10;;;9.60;;
77868;SDS011;67231;59.144;37.934;2023-09-12T03:53:30;18.13;;;9.10;;
77868;SDS011;67231;59.144;37.934;2023-09-12T03:55:57;20.90;;;9.30;;
77868;SDS011;67231;59.144;37.934;2023-09-12T03:58:24;18.73;;;9.10;;
77868;SDS011;67231;59.144;37.934;2023-09-12T04:00:50;17.77;;;9.15;;
77868;SDS011;67231;59.144;37.934;2023-09-12T04:03:17;17.98;;;9.73;;
77868;SDS011;67231;59.144;37.934;2023-09-12T04:05:45;18.02;;;9.15;;
77868;SDS011;67231;59.144;37.934;2023-09-12T04:08:15;17.73;;;9.32;;
77868;SDS011;67231;59.144;37.934;2023-09-12T04:10:42;19.75;;;9.10;;
77868;SDS011;67231;59.144;37.934;2023-09-12T04:13:09;17.38;;;9.07;;
77868;SDS011;67231;59.144;37.934;2023-09-12T04:15:36;20.20;;;9.73;;
77868;SDS011;67231;59.144;37.934;2023-09-12T04:18:02;19.17;;;9.30;;
77868;SDS011;67231;59.144;37.934;2023-09-12T04:20:30;19.23;;;9.15;;
77868;SDS011;67231;59.144;37.934;2023-09-12T04:22:56;21.02;;;9.75;;
77868;SDS011;67231;59.144;37.934;2023-09-12T04:25:23;24.83;;;12.32;;
77868;SDS011;67231;59.144;37.934;2023-09-12T04:27:49;30.27;;;14.77;;
77868;SDS011;67231;59.144;37.934;2023-09-12T04:30:16;27.75;;;16.20;;
77868;SDS011;67231;59.144;37.934;2023-09-12T04:32:43;23.92;;;12.95;;
77868;SDS011;67231;59.144;37.934;2023-09-12T04:35:09;25.48;;;12.60;;
77868;SDS011;67231;59.144;37.934;2023-09-12T04:37:35;21.98;;;11.07;;
77868;SDS011;67231;59.144;37.934;2023-09-12T04:40:03;25.30;;;10.13;;
77868;SDS011;67231;59.144;37.934;2023-09-12T04:42:31;22.30;;;11.00;;
77868;SDS011;67231;59.144;37.934;2023-09-12T04:44:58;19.90;;;10.30;;
77868;SDS011;67231;59.144;37.934;2023-09-12T04:47:24;25.77;;;11.90;;
77868;SDS011;67231;59.144;37.934;2023-09-12T04:49:51;24.10;;;11.68;;
77868;SDS011;67231;59.144;37.934;2023-09-12T04:52:18;25.23;;;11.55;;
77868;SDS011;67231;59.144;37.934;2023-09-12T04:54:44;21.33;;;10.93;;
77868;SDS011;67231;59.144;37.934;2023-09-12T04:57:11;25.25;;;11.73;;
77868;SDS011;67231;59.144;37.934;2023-09-12T04:59:38;20.73;;;10.57;;
77868;SDS011;67231;59.144;37.934;2023-09-12T05:02:04;21.13;;;10.68;;
77868;SDS011;67231;59.144;37.934;2023-09-12T05:04:30;27.35;;;12.20;;
77868;SDS011;67231;59.144;37.934;2023-09-12T05:06:57;23.60;;;12.30;;
77868;SDS011;67231;59.144;37.934;2023-09-12T05:09:24;30.20;;;12.18;;
77868;SDS011;67231;59.144;37.934;2023-09-12T05:11:50;22.90;;;12.20;;
77868;SDS011;67231;59.144;37.934;2023-09-12T05:14:17;29.33;;;12.88;;
77868;SDS011;67231;59.144;37.934;2023-09-12T05:16:43;22.55;;;11.23;;
77868;SDS011;67231;59.144;37.934;2023-09-12T05:19:09;27.83;;;12.55;;
77868;SDS011;67231;59.144;37.934;2023-09-12T05:21:36;25.45;;;13.05;;
77868;SDS011;67231;59.144;37.934;2023-09-12T05:24:02;24.20;;;11.93;;
77868;SDS011;67231;59.144;37.934;2023-09-12T05:26:29;25.45;;;11.82;;
77868;SDS011;67231;59.144;37.934;2023-09-12T05:28:55;26.27;;;11.82;;
77868;SDS011;67231;59.144;37.934;2023-09-12T05:31:22;24.65;;;11.25;;
77868;SDS011;67231;59.144;37.934;2023-09-12T05:33:49;25.70;;;11.88;;
77868;SDS011;67231;59.144;37.934;2023-09-12T05:36:15;26.38;;;12.55;;
77868;SDS011;67231;59.144;37.934;2023-09-12T05:38:41;19.50;;;9.85;;
77868;SDS011;67231;59.144;37.934;2023-09-12T05:41:09;28.58;;;12.90;;
77868;SDS011;67231;59.144;37.934;2023-09-12T05:43:35;23.95;;;12.00;;
77868;SDS011;67231;59.144;37.934;2023-09-12T05:46:02;25.25;;;11.25;;
77868;SDS011;67231;59.144;37.934;2023-09-12T05:48:28;19.65;;;9.90;;
77868;SDS011;67231;59.144;37.934;2023-09-12T05:50:54;22.85;;;10.90;;
77868;SDS011;67231;59.144;37.934;2023-09-12T05:53:21;24.40;;;10.52;;
77868;SDS011;67231;59.144;37.934;2023-09-12T05:55:47;20.27;;;10.32;;
77868;SDS011;67231;59.144;37.934;2023-09-12T05:58:13;25.90;;;10.90;;
77868;SDS011;67231;59.144;37.934;2023-09-12T06:00:40;22.17;;;11.07;;
77868;SDS011;67231;59.144;37.934;2023-09-12T06:03:07;28.65;;;11.50;;
77868;SDS011;67231;59.144;37.934;2023-09-12T06:05:33;20.63;;;10.15;;
77868;SDS011;67231;59.144;37.934;2023-09-12T06:07:59;24.17;;;10.15;;
77868;SDS011;67231;59.144;37.934;2023-09-12T06:10:26;22.83;;;10.15;;
77868;SDS011;67231;59.144;37.934;2023-09-12T06:12:52;24.05;;;11.25;;
77868;SDS011;67231;59.144;37.934;2023-09-12T06:15:18;24.50;;;11.13;;
77868;SDS011;67231;59.144;37.934;2023-09-12T06:17:45;23.15;;;11.60;;
77868;SDS011;67231;59.144;37.934;2023-09-12T06:20:11;26.00;;;12.57;;
77868;SDS011;67231;59.144;37.934;2023-09-12T06:22:37;20.83;;;10.48;;
77868;SDS011;67231;59.144;37.934;2023-09-12T06:25:04;22.70;;;11.30;;
77868;SDS011;67231;59.144;37.934;2023-09-12T06:27:33;21.27;;;10.50;;
77868;SDS011;67231;59.144;37.934;2023-09-12T06:30:00;22.15;;;11.30;;
77868;SDS011;67231;59.144;37.934;2023-09-12T06:32:29;22.55;;;11.27;;
77868;SDS011;67231;59.144;37.934;2023-09-12T06:34:56;19.95;;;10.73;;
77868;SDS011;67231;59.144;37.934;2023-09-12T06:37:22;19.77;;;10.65;;
77868;SDS011;67231;59.144;37.934;2023-09-12T06:39:49;20.15;;;10.55;;
77868;SDS011;67231;59.144;37.934;2023-09-12T06:42:16;20.83;;;10.45;;
77868;SDS011;67231;59.144;37.934;2023-09-12T06:44:43;18.60;;;9.55;;
77868;SDS011;67231;59.144;37.934;2023-09-12T06:47:09;21.80;;;11.35;;
77868;SDS011;67231;59.144;37.934;2023-09-12T06:49:36;23.42;;;10.52;;
77868;SDS011;67231;59.144;37.934;2023-09-12T06:52:04;19.67;;;10.95;;
77868;SDS011;67231;59.144;37.934;2023-09-12T06:54:32;17.00;;;9.68;;
77868;SDS011;67231;59.144;37.934;2023-09-12T06:56:59;18.48;;;9.80;;
77868;SDS011;67231;59.144;37.934;2023-09-12T06:59:26;18.00;;;9.65;;
77868;SDS011;67231;59.144;37.934;2023-09-12T07:01:52;17.00;;;9.32;;
77868;SDS011;67231;59.144;37.934;2023-09-12T07:04:19;20.25;;;10.38;;
77868;SDS011;67231;59.144;37.934;2023-09-12T07:06:45;17.50;;;9.68;;
77868;SDS011;67231;59.144;37.934;2023-09-12T07:09:12;16.95;;;9.98;;
77868;SDS011;67231;59.144;37.934;2023-09-12T07:11:41;18.83;;;9.95;;
77868;SDS011;67231;59.144;37.934;2023-09-12T07:14:08;17.35;;;9.68;;
77868;SDS011;67231;59.144;37.934;2023-09-12T07:16:36;18.27;;;10.00;;
77868;SDS011;67231;59.144;37.934;2023-09-12T07:19:02;17.40;;;9.80;;
77868;SDS011;67231;59.144;37.934;2023-09-12T07:21:30;17.02;;;10.23;;
77868;SDS011;67231;59.144;37.934;2023-09-12T07:23:58;18.98;;;9.75;;
77868;SDS011;67231;59.144;37.934;2023-09-12T07:26:24;18.27;;;10.43;;
77868;SDS011;67231;59.144;37.934;2023-09-12T07:28:51;15.98;;;9.77;;
77868;SDS011;67231;59.144;37.934;2023-09-12T07:31:17;16.00;;;9.18;;
77868;SDS011;67231;59.144;37.934;2023-09-12T07:33:47;17.20;;;9.18;;
77868;SDS011;67231;59.144;37.934;2023-09-12T07:36:14;17.60;;;9.40;;
77868;SDS011;67231;59.144;37.934;2023-09-12T07:38:40;17.30;;;9.93;;
77868;SDS011;67231;59.144;37.934;2023-09-12T07:41:08;16.85;;;10.27;;
77868;SDS011;67231;59.144;37.934;2023-09-12T07:43:34;17.63;;;10.18;;
77868;SDS011;67231;59.144;37.934;2023-09-12T07:46:01;19.85;;;9.60;;
77868;SDS011;67231;59.144;37.934;2023-09-12T07:48:27;16.75;;;9.73;;
77868;SDS011;67231;59.144;37.934;2023-09-12T07:50:54;16.90;;;9.48;;
77868;SDS011;67231;59.144;37.934;2023-09-12T07:53:20;16.70;;;9.52;;
77868;SDS011;67231;59.144;37.934;2023-09-12T07:55:48;15.05;;;9.05;;
77868;SDS011;67231;59.144;37.934;2023-09-12T07:58:15;14.35;;;9.48;;
77868;SDS011;67231;59.144;37.934;2023-09-12T08:00:46;16.98;;;9.23;;
77868;SDS011;67231;59.144;37.934;2023-09-12T08:03:13;14.57;;;9.70;;
77868;SDS011;67231;59.144;37.934;2023-09-12T08:05:41;15.30;;;9.82;;
77868;SDS011;67231;59.144;37.934;2023-09-12T08:08:08;16.70;;;9.85;;
77868;SDS011;67231;59.144;37.934;2023-09-12T08:10:34;15.85;;;10.15;;
77868;SDS011;67231;59.144;37.934;2023-09-12T08:13:00;16.33;;;8.77;;
77868;SDS011;67231;59.144;37.934;2023-09-12T08:15:27;16.10;;;9.57;;
77868;SDS011;67231;59.144;37.934;2023-09-12T08:17:54;16.83;;;9.38;;
77868;SDS011;67231;59.144;37.934;2023-09-12T08:20:21;15.63;;;9.60;;
77868;SDS011;67231;59.144;37.934;2023-09-12T08:22:47;13.05;;;8.77;;
77868;SDS011;67231;59.144;37.934;2023-09-12T08:25:14;14.80;;;9.75;;
77868;SDS011;67231;59.144;37.934;2023-09-12T08:27:41;14.48;;;9.35;;
77868;SDS011;67231;59.144;37.934;2023-09-12T08:30:10;16.95;;;10.30;;
77868;SDS011;67231;59.144;37.934;2023-09-12T08:35:06;14.40;;;9.32;;
77868;SDS011;67231;59.144;37.934;2023-09-12T08:37:33;15.00;;;9.40;;
77868;SDS011;67231;59.144;37.934;2023-09-12T08:39:59;13.32;;;9.18;;
77868;SDS011;67231;59.144;37.934;2023-09-12T08:42:29;13.98;;;8.90;;
77868;SDS011;67231;59.144;37.934;2023-09-12T08:44:58;16.65;;;9.13;;
77868;SDS011;67231;59.144;37.934;2023-09-12T08:47:24;15.25;;;8.88;;
77868;SDS011;67231;59.144;37.934;2023-09-12T08:49:52;17.02;;;9.82;;
77868;SDS011;67231;59.144;37.934;2023-09-12T08:52:20;15.05;;;8.73;;
77868;SDS011;67231;59.144;37.934;2023-09-12T08:54:46;17.85;;;9.65;;
77868;SDS011;67231;59.144;37.934;2023-09-12T08:57:13;17.05;;;9.50;;
77868;SDS011;67231;59.144;37.934;2023-09-12T08:59:40;14.18;;;8.85;;
77868;SDS011;67231;59.144;37.934;2023-09-12T09:02:09;15.00;;;8.80;;
77868;SDS011;67231;59.144;37.934;2023-09-12T09:04:38;16.23;;;9.43;;
77868;SDS011;67231;59.144;37.934;2023-09-12T09:07:10;14.80;;;9.02;;
77868;SDS011;67231;59.144;37.934;2023-09-12T09:09:39;14.05;;;8.93;;
77868;SDS011;67231;59.144;37.934;2023-09-12T09:12:09;11.48;;;7.65;;
77868;SDS011;67231;59.144;37.934;2023-09-12T09:14:36;14.65;;;8.82;;
77868;SDS011;67231;59.144;37.934;2023-09-12T09:17:03;15.05;;;9.20;;
77868;SDS011;67231;59.144;37.934;2023-09-12T09:19:42;19.52;;;9.38;;
77868;SDS011;67231;59.144;37.934;2023-09-12T09:22:10;14.98;;;9.20;;
77868;SDS011;67231;59.144;37.934;2023-09-12T09:24:37;15.20;;;8.88;;
77868;SDS011;67231;59.144;37.934;2023-09-12T09:27:03;16.38;;;9.07;;
77868;SDS011;67231;59.144;37.934;2023-09-12T09:29:30;16.80;;;9.73;;
77868;SDS011;67231;59.144;37.934;2023-09-12T09:32:00;15.38;;;8.65;;
77868;SDS011;67231;59.144;37.934;2023-09-12T09:34:27;14.40;;;8.52;;
77868;SDS011;67231;59.144;37.934;2023-09-12T09:36:56;19.45;;;10.23;;
77868;SDS011;67231;59.144;37.934;2023-09-12T09:39:24;15.38;;;9.60;;
77868;SDS011;67231;59.144;37.934;2023-09-12T09:41:53;15.43;;;9.00;;
77868;SDS011;67231;59.144;37.934;2023-09-12T09:44:21;17.90;;;10.05;;
77868;SDS011;67231;59.144;37.934;2023-09-12T09:46:54;15.25;;;8.98;;
77868;SDS011;67231;59.144;37.934;2023-09-12T09:49:26;17.60;;;10.15;;
77868;SDS011;67231;59.144;37.934;2023-09-12T09:51:52;19.10;;;10.65;;
77868;SDS011;67231;59.144;37.934;2023-09-12T09:54:21;18.48;;;10.27;;
77868;SDS011;67231;59.144;37.934;2023-09-12T09:56:54;17.65;;;10.82;;
77868;SDS011;67231;59.144;37.934;2023-09-12T09:59:23;20.05;;;11.18;;
77868;SDS011;67231;59.144;37.934;2023-09-12T10:01:54;16.92;;;10.50;;
77868;SDS011;67231;59.144;37.934;2023-09-12T10:04:22;19.70;;;10.75;;
77868;SDS011;67231;59.144;37.934;2023-09-12T10:06:50;21.13;;;11.30;;
77868;SDS011;67231;59.144;37.934;2023-09-12T10:09:21;20.58;;;11.65;;
77868;SDS011;67231;59.144;37.934;2023-09-12T10:11:48;18.45;;;11.13;;
77868;SDS011;67231;59.144;37.934;2023-09-12T10:14:19;19.05;;;11.32;;
77868;SDS011;67231;59.144;37.934;2023-09-12T10:16:49;20.30;;;11.40;;
77868;SDS011;67231;59.144;37.934;2023-09-12T10:19:25;21.02;;;10.95;;
77868;SDS011;67231;59.144;37.934;2023-09-12T10:22:11;17.38;;;10.35;;
77868;SDS011;67231;59.144;37.934;2023-09-12T10:24:43;21.13;;;11.68;;
77868;SDS011;67231;59.144;37.934;2023-09-12T10:27:11;20.88;;;11.30;;
77868;SDS011;67231;59.144;37.934;2023-09-12T10:29:39;21.08;;;11.77;;
77868;SDS011;67231;59.144;37.934;2023-09-12T10:32:06;19.70;;;10.73;;
77868;SDS011;67231;59.144;37.934;2023-09-12T10:34:33;18.63;;;11.23;;
77868;SDS011;67231;59.144;37.934;2023-09-12T10:37:01;20.20;;;11.75;;
77868;SDS011;67231;59.144;37.934;2023-09-12T10:39:31;26.02;;;12.32;;
77868;SDS011;67231;59.144;37.934;2023-09-12T10:41:59;21.60;;;12.07;;
77868;SDS011;67231;59.144;37.934;2023-09-12T10:44:30;21.48;;;12.07;;
77868;SDS011;67231;59.144;37.934;2023-09-12T10:46:58;20.80;;;11.95;;
77868;SDS011;67231;59.144;37.934;2023-09-12T10:49:25;23.65;;;12.70;;
77868;SDS011;67231;59.144;37.934;2023-09-12T10:51:51;22.92;;;12.45;;
77868;SDS011;67231;59.144;37.934;2023-09-12T10:54:26;19.95;;;11.60;;
77868;SDS011;67231;59.144;37.934;2023-09-12T10:57:11;20.02;;;11.43;;
77868;SDS011;67231;59.144;37.934;2023-09-12T11:02:29;21.27;;;12.02;;
77868;SDS011;67231;59.144;37.934;2023-09-12T11:04:58;20.58;;;11.70;;
77868;SDS011;67231;59.144;37.934;2023-09-12T11:12:47;23.05;;;11.27;;
77868;SDS011;67231;59.144;37.934;2023-09-12T11:15:26;20.73;;;10.90;;
77868;SDS011;67231;59.144;37.934;2023-09-12T11:18:04;22.80;;;12.35;;
77868;SDS011;67231;59.144;37.934;2023-09-12T11:23:19;20.00;;;11.18;;
77868;SDS011;67231;59.144;37.934;2023-09-12T11:25:46;21.20;;;11.50;;
77868;SDS011;67231;59.144;37.934;2023-09-12T11:28:13;21.00;;;12.20;;
77868;SDS011;67231;59.144;37.934;2023-09-12T11:30:54;20.42;;;11.05;;
77868;SDS011;67231;59.144;37.934;2023-09-12T11:33:24;20.60;;;11.48;;
77868;SDS011;67231;59.144;37.934;2023-09-12T11:35:55;31.20;;;12.38;;
77868;SDS011;67231;59.144;37.934;2023-09-12T11:38:27;20.77;;;11.60;;
77868;SDS011;67231;59.144;37.934;2023-09-12T11:40:55;22.55;;;11.88;;
77868;SDS011;67231;59.144;37.934;2023-09-12T11:43:23;19.65;;;10.85;;
77868;SDS011;67231;59.144;37.934;2023-09-12T11:45:52;21.90;;;11.93;;
77868;SDS011;67231;59.144;37.934;2023-09-12T11:48:20;22.08;;;12.65;;
77868;SDS011;67231;59.144;37.934;2023-09-12T11:50:51;21.55;;;12.35;;
77868;SDS011;67231;59.144;37.934;2023-09-12T11:53:22;25.90;;;12.57;;
77868;SDS011;67231;59.144;37.934;2023-09-12T11:55:56;19.85;;;11.35;;
77868;SDS011;67231;59.144;37.934;2023-09-12T11:58:24;24.88;;;12.95;;
77868;SDS011;67231;59.144;37.934;2023-09-12T12:00:52;22.65;;;12.73;;
77868;SDS011;67231;59.144;37.934;2023-09-12T12:03:24;23.48;;;13.00;;
77868;SDS011;67231;59.144;37.934;2023-09-12T12:05:53;22.63;;;13.15;;
77868;SDS011;67231;59.144;37.934;2023-09-12T12:08:21;22.27;;;11.05;;
77868;SDS011;67231;59.144;37.934;2023-09-12T12:10:51;24.92;;;14.27;;
77868;SDS011;67231;59.144;37.934;2023-09-12T12:13:18;22.73;;;12.35;;
77868;SDS011;67231;59.144;37.934;2023-09-12T12:15:46;23.35;;;12.80;;
77868;SDS011;67231;59.144;37.934;2023-09-12T12:18:12;23.23;;;12.38;;
77868;SDS011;67231;59.144;37.934;2023-09-12T12:20:39;22.92;;;12.95;;
77868;SDS011;67231;59.144;37.934;2023-09-12T12:23:06;23.25;;;12.32;;
77868;SDS011;67231;59.144;37.934;2023-09-12T12:25:33;21.27;;;10.73;;
77868;SDS011;67231;59.144;37.934;2023-09-12T12:28:01;22.70;;;12.10;;
77868;SDS011;67231;59.144;37.934;2023-09-12T12:30:33;21.95;;;12.75;;
77868;SDS011;67231;59.144;37.934;2023-09-12T12:33:01;25.00;;;12.82;;
77868;SDS011;67231;59.144;37.934;2023-09-12T12:35:32;22.83;;;12.70;;
77868;SDS011;67231;59.144;37.934;2023-09-12T12:37:59;22.58;;;12.13;;
77868;SDS011;67231;59.144;37.934;2023-09-12T12:40:26;26.95;;;12.77;;
77868;SDS011;67231;59.144;37.934;2023-09-12T12:42:53;22.60;;;11.45;;
77868;SDS011;67231;59.144;37.934;2023-09-12T12:45:20;22.45;;;12.60;;
77868;SDS011;67231;59.144;37.934;2023-09-12T12:47:59;24.42;;;12.88;;
77868;SDS011;67231;59.144;37.934;2023-09-12T12:50:27;23.23;;;11.80;;
77868;SDS011;67231;59.144;37.934;2023-09-12T12:52:53;24.80;;;13.30;;
77868;SDS011;67231;59.144;37.934;2023-09-12T12:55:20;23.90;;;12.52;;
77868;SDS011;67231;59.144;37.934;2023-09-12T12:57:48;23.00;;;12.77;;
77868;SDS011;67231;59.144;37.934;2023-09-12T13:00:15;23.35;;;11.73;;
77868;SDS011;67231;59.144;37.934;2023-09-12T13:02:44;26.45;;;13.20;;
77868;SDS011;67231;59.144;37.934;2023-09-12T13:07:50;21.15;;;11.45;;
77868;SDS011;67231;59.144;37.934;2023-09-12T13:10:17;20.77;;;11.35;;
77868;SDS011;67231;59.144;37.934;2023-09-12T13:12:46;24.48;;;11.20;;
77868;SDS011;67231;59.144;37.934;2023-09-12T13:15:13;18.95;;;10.27;;
77868;SDS011;67231;59.144;37.934;2023-09-12T13:17:40;21.15;;;12.15;;
77868;SDS011;67231;59.144;37.934;2023-09-12T13:20:08;21.48;;;10.90;;
77868;SDS011;67231;59.144;37.934;2023-09-12T13:22:35;23.50;;;12.15;;
77868;SDS011;67231;59.144;37.934;2023-09-12T13:25:02;21.10;;;10.48;;
77868;SDS011;67231;59.144;37.934;2023-09-12T13:27:31;19.17;;;10.20;;
77868;SDS011;67231;59.144;37.934;2023-09-12T13:29:57;20.48;;;11.20;;
77868;SDS011;67231;59.144;37.934;2023-09-12T13:32:23;22.63;;;11.48;;
77868;SDS011;67231;59.144;37.934;2023-09-12T13:34:50;23.15;;;11.02;;
77868;SDS011;67231;59.144;37.934;2023-09-12T13:37:16;21.67;;;10.98;;
77868;SDS011;67231;59.144;37.934;2023-09-12T13:39:44;17.15;;;9.82;;
77868;SDS011;67231;59.144;37.934;2023-09-12T13:42:15;20.25;;;10.63;;
77868;SDS011;67231;59.144;37.934;2023-09-12T13:44:46;21.50;;;12.02;;
77868;SDS011;67231;59.144;37.934;2023-09-12T13:47:14;23.02;;;12.10;;
77868;SDS011;67231;59.144;37.934;2023-09-12T13:49:48;23.55;;;13.40;;
77868;SDS011;67231;59.144;37.934;2023-09-12T13:52:17;29.58;;;14.05;;
77868;SDS011;67231;59.144;37.934;2023-09-12T13:54:45;25.27;;;13.00;;
77868;SDS011;67231;59.144;37.934;2023-09-12T13:57:11;19.70;;;10.25;;
77868;SDS011;67231;59.144;37.934;2023-09-12T13:59:37;19.33;;;10.48;;
77868;SDS011;67231;59.144;37.934;2023-09-12T14:02:03;19.90;;;11.13;;
77868;SDS011;67231;59.144;37.934;2023-09-12T14:04:31;20.95;;;10.70;;
77868;SDS011;67231;59.144;37.934;2023-09-12T14:06:57;17.85;;;9.35;;
77868;SDS011;67231;59.144;37.934;2023-09-12T14:09:23;18.42;;;9.40;;
77868;SDS011;67231;59.144;37.934;2023-09-12T14:11:50;20.02;;;10.05;;
77868;SDS011;67231;59.144;37.934;2023-09-12T14:14:16;19.50;;;10.35;;
77868;SDS011;67231;59.144;37.934;2023-09-12T14:16:45;18.90;;;9.57;;
77868;SDS011;67231;59.144;37.934;2023-09-12T14:19:16;16.67;;;8.52;;
77868;SDS011;67231;59.144;37.934;2023-09-12T14:21:42;16.90;;;9.85;;
77868;SDS011;67231;59.144;37.934;2023-09-12T14:24:12;22.50;;;10.27;;
77868;SDS011;67231;59.144;37.934;2023-09-12T14:26:38;16.92;;;9.43;;
77868;SDS011;67231;59.144;37.934;2023-09-12T14:29:05;15.88;;;9.82;;
77868;SDS011;67231;59.144;37.934;2023-09-12T14:31:31;21.25;;;10.20;;
77868;SDS011;67231;59.144;37.934;2023-09-12T14:33:58;18.13;;;9.90;;
77868;SDS011;67231;59.144;37.934;2023-09-12T14:36:24;17.33;;;9.43;;
77868;SDS011;67231;59.144;37.934;2023-09-12T14:38:50;18.48;;;9.38;;
77868;SDS011;67231;59.144;37.934;2023-09-12T14:41:17;19.80;;;9.52;;